createdAt,value
2022-09-01T00:00:12.882Z,16.63
2022-09-01T00:02:48.692Z,14.57
2022-09-01T00:05:28.780Z,14.30
2022-09-01T00:08:04.262Z,12.02
2022-09-01T00:10:42.435Z,10.52
2022-09-01T00:13:20.194Z,11.82
2022-09-01T00:15:56.195Z,10.57
2022-09-01T00:18:31.713Z,10.07
2022-09-01T00:21:09.965Z,10.20
2022-09-01T00:23:48.621Z,10.95
2022-09-01T00:26:27.096Z,10.35
2022-09-01T00:29:24.681Z,9.57
2022-09-01T00:32:00.513Z,11.65
2022-09-01T00:34:36.471Z,14.52
2022-09-01T00:37:15.182Z,8.98
2022-09-01T00:39:51.007Z,9.60
2022-09-01T00:42:26.336Z,12.82
2022-09-01T00:45:03.925Z,11.55
2022-09-01T00:47:39.762Z,11.20
2022-09-01T00:50:16.274Z,12.23
2022-09-01T00:52:59.490Z,10.65
2022-09-01T00:55:40.973Z,10.40
2022-09-01T00:58:20.048Z,10.45
2022-09-01T01:00:59.024Z,11.30
2022-09-01T01:03:34.734Z,12.90
2022-09-01T01:06:15.554Z,11.10
2022-09-01T01:09:02.479Z,12.20
2022-09-01T01:11:39.596Z,11.70
2022-09-01T01:14:17.196Z,10.07
2022-09-01T01:16:56.996Z,12.82
2022-09-01T01:19:58.984Z,17.00
2022-09-01T01:23:00.256Z,11.63
2022-09-01T01:25:40.186Z,11.98
2022-09-01T01:28:23.644Z,13.00
2022-09-01T01:31:03.307Z,13.45
2022-09-01T01:33:43.580Z,10.80
2022-09-01T01:36:23.256Z,10.35
2022-09-01T01:39:07.407Z,9.55
2022-09-01T01:41:47.191Z,11.70
2022-09-01T01:44:29.617Z,11.13
2022-09-01T01:47:10.096Z,8.63
2022-09-01T01:49:47.476Z,10.98
2022-09-01T01:52:26.179Z,8.65
2022-09-01T01:55:05.485Z,8.13
2022-09-01T01:57:50.504Z,8.63
2022-09-01T02:00:31.906Z,10.88
2022-09-01T02:03:09.200Z,9.65
2022-09-01T02:05:49.569Z,8.00
2022-09-01T02:08:27.689Z,11.27
2022-09-01T02:11:03.421Z,8.43
2022-09-01T02:13:46.376Z,11.25
2022-09-01T02:16:24.902Z,11.25
2022-09-01T02:19:00.446Z,11.75
2022-09-01T02:21:39.571Z,13.43
2022-09-01T02:27:23.803Z,11.25
2022-09-01T02:30:27.693Z,8.02
2022-09-01T02:33:04.675Z,11.35
2022-09-01T02:35:42.347Z,11.40
2022-09-01T02:38:16.933Z,13.10
2022-09-01T02:40:51.934Z,7.95
2022-09-01T02:43:35.620Z,8.90
2022-09-01T02:46:13.481Z,11.85
2022-09-01T02:48:57.184Z,8.38
2022-09-01T02:51:35.428Z,10.32
2022-09-01T02:54:14.065Z,8.35
2022-09-01T02:56:59.631Z,11.20
2022-09-01T02:59:38.707Z,6.75
2022-09-01T03:02:16.565Z,10.23
2022-09-01T03:04:54.695Z,13.55
2022-09-01T03:07:33.899Z,10.32
2022-09-01T03:10:11.413Z,13.98
2022-09-01T03:12:45.895Z,9.90
2022-09-01T03:15:23.363Z,10.77
2022-09-01T03:17:59.498Z,13.02
2022-09-01T03:20:41.349Z,11.45
2022-09-01T03:23:19.282Z,12.68
2022-09-01T03:25:55.301Z,12.50
2022-09-01T03:28:29.777Z,10.82
2022-09-01T03:31:04.226Z,13.45
2022-09-01T03:33:58.949Z,12.57
2022-09-01T03:36:39.758Z,18.83
2022-09-01T03:39:18.073Z,13.60
2022-09-01T03:41:52.674Z,16.23
2022-09-01T03:44:31.132Z,13.68
2022-09-01T03:47:08.616Z,9.93
2022-09-01T03:49:45.268Z,13.25
2022-09-01T03:52:22.311Z,15.15
2022-09-01T03:54:57.446Z,12.10
2022-09-01T03:57:32.497Z,12.93
2022-09-01T04:00:09.042Z,14.15
2022-09-01T04:02:49.090Z,9.95
2022-09-01T04:05:37.830Z,14.20
2022-09-01T04:08:21.410Z,13.90
2022-09-01T04:10:58.729Z,15.23
2022-09-01T04:13:37.870Z,14.48
2022-09-01T04:16:36.803Z,11.35
2022-09-01T04:19:21.822Z,11.23
2022-09-01T04:22:01.460Z,10.60
2022-09-01T04:24:47.464Z,11.88
2022-09-01T04:27:26.394Z,16.77
2022-09-01T04:30:03.190Z,14.93
2022-09-01T04:32:45.883Z,14.35
2022-09-01T04:35:37.716Z,12.18
2022-09-01T04:38:17.762Z,12.60
2022-09-01T04:40:59.060Z,13.00
2022-09-01T04:43:36.094Z,14.23
2022-09-01T04:46:12.966Z,14.45
2022-09-01T04:48:54.912Z,13.55
2022-09-01T04:51:36.094Z,12.07
2022-09-01T04:54:16.136Z,11.52
2022-09-01T04:56:56.702Z,13.18
2022-09-01T04:59:34.322Z,13.45
2022-09-01T05:02:12.210Z,13.27
2022-09-01T05:04:48.143Z,13.38
2022-09-01T05:07:26.465Z,12.25
2022-09-01T05:10:05.788Z,10.18
2022-09-01T05:12:54.094Z,17.85
2022-09-01T05:15:29.969Z,11.98
2022-09-01T05:18:11.986Z,14.80
2022-09-01T05:20:48.787Z,11.45
2022-09-01T05:23:25.759Z,16.65
2022-09-01T05:26:00.895Z,11.77
2022-09-01T05:28:37.471Z,11.75
2022-09-01T05:31:14.334Z,17.50
2022-09-01T05:33:51.731Z,13.93
2022-09-01T05:36:56.540Z,16.20
2022-09-01T05:39:38.519Z,13.75
2022-09-01T05:42:14.222Z,15.63
2022-09-01T05:44:52.703Z,15.13
2022-09-01T05:47:30.957Z,13.70
2022-09-01T05:50:11.031Z,11.40
2022-09-01T05:53:40.610Z,16.88
2022-09-01T05:57:50.061Z,13.10
2022-09-01T06:01:29.337Z,13.55
2022-09-01T06:04:07.537Z,12.00
2022-09-01T06:09:47.588Z,14.65
2022-09-01T06:12:27.004Z,15.18
2022-09-01T06:15:03.051Z,15.15
2022-09-01T06:17:41.029Z,12.88
2022-09-01T06:20:20.078Z,15.20
2022-09-01T06:22:56.439Z,15.57
2022-09-01T06:25:36.124Z,14.45
2022-09-01T06:28:13.856Z,14.27
2022-09-01T06:30:50.855Z,18.92
2022-09-01T06:33:29.689Z,11.02
2022-09-01T06:36:07.951Z,12.20
2022-09-01T06:38:44.430Z,12.88
2022-09-01T06:41:21.089Z,19.52
2022-09-01T06:43:57.212Z,10.93
2022-09-01T06:54:21.848Z,12.48
2022-09-01T06:58:07.055Z,13.20
2022-09-01T07:01:07.128Z,18.35
2022-09-01T07:04:41.823Z,16.23
2022-09-01T07:22:35.294Z,14.68
2022-09-01T07:25:13.483Z,18.45
2022-09-01T07:28:03.144Z,15.32
2022-09-01T07:30:48.623Z,14.82
2022-09-01T07:33:44.416Z,17.90
2022-09-01T07:36:27.272Z,15.57
2022-09-01T07:46:36.507Z,16.92
2022-09-01T07:51:53.447Z,14.00
2022-09-01T07:54:29.274Z,14.43
2022-09-01T07:57:05.514Z,14.75
2022-09-01T07:59:42.905Z,15.18
2022-09-01T08:02:26.363Z,17.85
2022-09-01T08:05:03.599Z,13.07
2022-09-01T08:07:51.843Z,14.90
2022-09-01T08:10:31.407Z,13.35
2022-09-01T08:13:07.277Z,13.95
2022-09-01T08:18:50.040Z,13.38
2022-09-01T08:21:37.368Z,14.88
2022-09-01T08:24:35.390Z,14.13
2022-09-01T08:27:10.854Z,20.70
2022-09-01T08:29:46.958Z,17.70
2022-09-01T08:32:22.856Z,14.77
2022-09-01T08:35:00.974Z,23.80
2022-09-01T08:37:37.158Z,19.58
2022-09-01T08:40:18.923Z,18.48
2022-09-01T08:43:04.142Z,14.52
2022-09-01T08:45:49.793Z,18.95
2022-09-01T08:49:23.236Z,17.50
2022-09-01T08:51:35.410Z,16.73
2022-09-01T08:54:29.279Z,19.65
2022-09-01T08:57:11.322Z,13.57
2022-09-01T09:00:14.599Z,12.75
2022-09-01T09:03:01.947Z,17.25
2022-09-01T09:05:47.380Z,16.10
2022-09-01T09:08:45.526Z,14.70
2022-09-01T09:11:38.653Z,14.30
2022-09-01T09:14:23.090Z,15.13
2022-09-01T09:17:02.762Z,18.75
2022-09-01T09:19:41.278Z,15.32
2022-09-01T09:22:19.425Z,15.02
2022-09-01T09:24:58.436Z,19.38
2022-09-01T09:27:34.053Z,14.48
2022-09-01T09:30:11.734Z,18.40
2022-09-01T09:35:45.948Z,14.60
2022-09-01T09:38:30.632Z,18.67
2022-09-01T09:44:04.359Z,17.58
2022-09-01T09:46:44.783Z,16.45
2022-09-01T09:49:36.087Z,15.00
2022-09-01T09:52:23.155Z,15.48
2022-09-01T09:55:08.184Z,21.55
2022-09-01T09:57:47.034Z,18.48
2022-09-01T10:00:27.351Z,20.20
2022-09-01T10:03:08.904Z,20.17
2022-09-01T10:05:50.059Z,21.45
2022-09-01T10:08:50.259Z,17.83
2022-09-01T10:11:36.095Z,21.05
2022-09-01T10:14:35.366Z,22.67
2022-09-01T10:17:22.650Z,18.10
2022-09-01T10:20:07.513Z,17.55
2022-09-01T10:22:45.910Z,17.80
2022-09-01T10:25:29.136Z,15.48
2022-09-01T10:28:13.714Z,19.23
2022-09-01T10:31:01.093Z,17.23
2022-09-01T10:33:37.054Z,15.93
2022-09-01T10:36:14.231Z,21.45
2022-09-01T10:38:53.693Z,15.75
2022-09-01T10:42:09.526Z,19.38
2022-09-01T10:45:03.859Z,23.92
2022-09-01T10:47:42.155Z,23.45
2022-09-01T10:50:36.131Z,18.17
2022-09-01T10:53:17.311Z,20.92
2022-09-01T10:56:19.010Z,21.15
2022-09-01T11:02:24.806Z,20.17
2022-09-01T11:05:22.099Z,19.70
2022-09-01T11:08:01.276Z,18.77
2022-09-01T11:10:53.051Z,24.30
2022-09-01T11:13:49.171Z,19.98
2022-09-01T11:16:47.241Z,23.23
2022-09-01T11:19:46.592Z,16.25
2022-09-01T11:22:48.103Z,20.27
2022-09-01T11:25:46.196Z,21.00
2022-09-01T11:28:53.516Z,17.08
2022-09-01T11:31:43.219Z,17.20
2022-09-01T11:34:23.315Z,19.95
2022-09-01T11:37:03.206Z,20.90
2022-09-01T11:39:57.958Z,20.38
2022-09-01T11:42:40.162Z,21.15
2022-09-01T11:45:30.050Z,21.42
2022-09-01T11:48:15.263Z,21.38
2022-09-01T11:51:00.774Z,18.42
2022-09-01T11:53:42.545Z,24.58
2022-09-01T11:56:24.874Z,19.83
2022-09-01T11:59:00.206Z,20.95
2022-09-01T12:01:40.388Z,15.90
2022-09-01T12:04:27.263Z,16.88
2022-09-01T12:07:08.027Z,23.33
2022-09-01T12:09:50.207Z,14.52
2022-09-01T12:12:43.513Z,18.25
2022-09-01T12:15:29.863Z,16.33
2022-09-01T12:18:23.919Z,16.55
2022-09-01T12:21:04.177Z,19.17
2022-09-01T12:23:47.485Z,17.98
2022-09-01T12:26:33.370Z,19.30
2022-09-01T12:29:15.574Z,18.83
2022-09-01T12:31:54.279Z,20.90
2022-09-01T12:34:34.553Z,17.85
2022-09-01T12:37:13.886Z,18.88
2022-09-01T12:39:50.573Z,17.15
2022-09-01T12:42:41.431Z,15.15
2022-09-01T12:45:45.740Z,13.65
2022-09-01T12:48:33.445Z,16.20
2022-09-01T12:51:12.025Z,15.68
2022-09-01T12:53:58.391Z,19.33
2022-09-01T12:56:40.701Z,15.82
2022-09-01T12:59:22.106Z,13.88
2022-09-01T13:02:28.826Z,14.77
2022-09-01T13:05:17.504Z,13.90
2022-09-01T13:07:57.136Z,13.70
2022-09-01T13:10:35.887Z,17.25
2022-09-01T13:13:12.221Z,12.48
2022-09-01T13:15:52.855Z,14.82
2022-09-01T13:18:32.987Z,16.58
2022-09-01T13:21:12.585Z,16.75
2022-09-01T13:23:52.143Z,17.10
2022-09-01T13:26:28.117Z,16.85
2022-09-01T13:29:05.738Z,14.05
2022-09-01T13:32:16.668Z,14.00
2022-09-01T13:34:37.166Z,13.70
2022-09-01T13:37:12.813Z,15.73
2022-09-01T13:39:51.761Z,18.45
2022-09-01T13:42:28.535Z,18.52
2022-09-01T13:45:08.083Z,13.07
2022-09-01T13:48:18.288Z,13.00
2022-09-01T13:53:50.566Z,13.38
2022-09-01T13:56:30.788Z,17.42
2022-09-01T13:59:06.218Z,18.90
2022-09-01T14:01:42.748Z,14.75
2022-09-01T14:04:18.387Z,14.55
2022-09-01T14:06:53.816Z,11.45
2022-09-01T14:09:29.340Z,13.32
2022-09-01T14:12:08.134Z,15.68
2022-09-01T14:17:39.838Z,14.57
2022-09-01T14:20:20.034Z,12.30
2022-09-01T14:22:57.698Z,10.93
2022-09-01T14:25:33.227Z,11.80
2022-09-01T14:28:10.725Z,12.40
2022-09-01T14:30:47.060Z,12.52
2022-09-01T14:33:26.038Z,13.82
2022-09-01T14:36:01.379Z,13.88
2022-09-01T14:38:37.172Z,13.57
2022-09-01T14:41:12.648Z,12.48
2022-09-01T14:43:51.715Z,15.20
2022-09-01T14:46:28.626Z,13.85
2022-09-01T14:49:05.829Z,13.30
2022-09-01T14:54:36.853Z,11.00
2022-09-01T14:57:29.640Z,12.82
2022-09-01T15:00:14.062Z,12.10
2022-09-01T15:02:52.103Z,11.95
2022-09-01T15:05:28.628Z,12.18
2022-09-01T15:08:04.498Z,14.40
2022-09-01T15:10:40.277Z,12.80
2022-09-01T15:13:18.730Z,11.13
2022-09-01T15:15:56.799Z,11.27
2022-09-01T15:18:32.456Z,12.73
2022-09-01T15:21:08.343Z,11.38
2022-09-01T15:23:44.550Z,11.38
2022-09-01T15:26:21.067Z,12.48
2022-09-01T15:28:56.898Z,14.15
2022-09-01T15:31:35.321Z,11.32
2022-09-01T15:34:11.369Z,11.13
2022-09-01T15:36:47.141Z,12.95
2022-09-01T15:39:23.157Z,13.73
2022-09-01T15:41:58.734Z,9.93
2022-09-01T15:44:34.610Z,15.10
2022-09-01T15:47:12.152Z,12.07
2022-09-01T15:50:07.146Z,12.50
2022-09-01T15:52:53.632Z,12.57
2022-09-01T15:55:35.275Z,12.27
2022-09-01T15:58:11.607Z,14.63
2022-09-01T16:00:47.359Z,10.80
2022-09-01T16:03:25.995Z,14.48
2022-09-01T16:06:01.613Z,13.57
2022-09-01T16:08:37.061Z,11.45
2022-09-01T16:11:14.540Z,10.98
2022-09-01T16:13:50.552Z,13.70
2022-09-01T16:16:48.933Z,12.43
2022-09-01T16:19:34.506Z,13.82
2022-09-01T16:22:20.804Z,12.15
2022-09-01T16:25:02.722Z,13.68
2022-09-01T16:27:43.258Z,12.75
2022-09-01T16:30:24.168Z,12.75
2022-09-01T16:33:01.212Z,17.42
2022-09-01T16:35:46.377Z,9.85
2022-09-01T16:38:38.720Z,15.57
2022-09-01T16:41:20.264Z,15.57
2022-09-01T16:44:03.995Z,11.52
2022-09-01T16:46:49.587Z,13.55
2022-09-01T16:49:39.339Z,9.98
2022-09-01T16:52:28.249Z,12.27
2022-09-01T16:55:26.699Z,12.98
2022-09-01T16:58:09.837Z,11.65
2022-09-01T17:00:52.369Z,15.65
2022-09-01T17:03:42.755Z,16.80
2022-09-01T17:06:24.436Z,13.27
2022-09-01T17:09:08.862Z,13.25
2022-09-01T17:11:51.839Z,12.43
2022-09-01T17:14:35.210Z,14.45
2022-09-01T17:17:13.752Z,9.45
2022-09-01T17:19:54.209Z,13.25
2022-09-01T17:22:31.460Z,15.88
2022-09-01T17:25:13.747Z,12.93
2022-09-01T17:27:59.800Z,14.00
2022-09-01T17:30:44.244Z,12.15
2022-09-01T17:33:28.484Z,15.35
2022-09-01T17:36:15.935Z,12.23
2022-09-01T17:38:59.283Z,12.85
2022-09-01T17:41:43.053Z,15.23
2022-09-01T17:44:24.494Z,13.27
2022-09-01T17:47:14.324Z,13.07
2022-09-01T17:49:58.218Z,11.45
2022-09-01T17:53:02.079Z,12.18
2022-09-01T17:55:52.969Z,15.27
2022-09-01T17:58:45.394Z,15.18
2022-09-01T18:01:28.103Z,11.13
2022-09-01T18:04:40.310Z,12.65
2022-09-01T18:07:25.563Z,15.63
2022-09-01T18:10:04.219Z,15.07
2022-09-01T18:12:43.937Z,13.20
2022-09-01T18:15:25.997Z,14.90
2022-09-01T18:18:10.045Z,16.27
2022-09-01T18:20:47.794Z,14.40
2022-09-01T18:23:26.563Z,15.18
2022-09-01T18:26:09.608Z,17.15
2022-09-01T18:28:45.658Z,17.23
2022-09-01T18:31:55.920Z,19.08
2022-09-01T18:34:47.253Z,15.63
2022-09-01T18:37:28.938Z,13.20
2022-09-01T18:40:15.193Z,17.70
2022-09-01T18:42:57.777Z,20.10
2022-09-01T18:45:42.045Z,17.65
2022-09-01T18:51:16.719Z,18.67
2022-09-01T18:53:56.197Z,17.65
2022-09-01T18:56:38.989Z,15.75
2022-09-01T18:59:36.714Z,16.95
2022-09-01T19:02:27.291Z,18.45
2022-09-01T19:05:11.349Z,16.80
2022-09-01T19:07:54.231Z,18.85
2022-09-01T19:10:35.378Z,13.93
2022-09-01T19:13:17.487Z,19.90
2022-09-01T19:15:59.828Z,17.55
2022-09-01T19:18:47.727Z,16.98
2022-09-01T19:21:28.420Z,19.67
2022-09-01T19:24:06.985Z,19.27
2022-09-01T19:26:48.895Z,18.42
2022-09-01T19:29:30.931Z,22.63
2022-09-01T19:32:10.316Z,19.40
2022-09-01T19:34:48.651Z,20.60
2022-09-01T19:37:26.822Z,14.80
2022-09-01T19:40:02.866Z,16.88
2022-09-01T19:42:47.218Z,17.88
2022-09-01T19:45:26.474Z,20.88
2022-09-01T19:48:08.609Z,21.42
2022-09-01T19:50:49.218Z,16.75
2022-09-01T19:53:40.639Z,17.15
2022-09-01T19:56:39.849Z,16.27
2022-09-01T19:59:22.545Z,19.58
2022-09-01T20:02:01.847Z,20.73
2022-09-01T20:04:47.009Z,20.95
2022-09-01T20:07:32.659Z,17.40
2022-09-01T20:10:22.682Z,16.10
2022-09-01T20:13:11.843Z,17.33
2022-09-01T20:15:53.226Z,14.63
2022-09-01T20:18:34.227Z,13.63
2022-09-01T20:21:21.333Z,14.02
2022-09-01T20:24:03.559Z,13.75
2022-09-01T20:26:47.832Z,15.00
2022-09-01T20:29:30.667Z,20.38
2022-09-01T20:32:08.103Z,18.88
2022-09-01T20:34:48.817Z,19.63
2022-09-01T20:37:31.851Z,13.88
2022-09-01T20:40:11.278Z,13.85
2022-09-01T20:42:56.990Z,16.33
2022-09-01T20:45:33.632Z,20.30
2022-09-01T20:48:12.583Z,16.58
2022-09-01T20:50:55.551Z,14.90
2022-09-01T20:53:46.209Z,17.48
2022-09-01T20:56:48.968Z,15.20
2022-09-01T20:59:35.202Z,15.05
2022-09-01T21:02:26.634Z,15.90
2022-09-01T21:05:15.427Z,16.75
2022-09-01T21:07:58.262Z,16.23
2022-09-01T21:10:46.630Z,19.30
2022-09-01T21:13:51.243Z,13.10
2022-09-01T21:16:37.587Z,14.57
2022-09-01T21:19:21.929Z,13.90
2022-09-01T21:22:08.021Z,14.90
2022-09-01T21:24:47.230Z,15.45
2022-09-01T21:27:31.997Z,13.90
2022-09-01T21:30:16.765Z,16.95
2022-09-01T21:32:55.698Z,13.10
2022-09-01T21:35:31.193Z,10.57
2022-09-01T21:38:09.156Z,13.80
2022-09-01T21:40:45.138Z,12.93
2022-09-01T21:43:26.901Z,12.45
2022-09-01T21:46:02.719Z,15.40
2022-09-01T21:48:43.687Z,12.43
2022-09-01T21:51:19.232Z,11.02
2022-09-01T21:53:56.555Z,12.88
2022-09-01T21:56:33.421Z,13.73
2022-09-01T21:59:27.535Z,11.40
2022-09-01T22:02:04.627Z,16.20
2022-09-01T22:04:43.168Z,12.80
2022-09-01T22:07:25.824Z,14.05
2022-09-01T22:10:01.636Z,12.00
2022-09-01T22:12:37.024Z,13.70
2022-09-01T22:15:21.246Z,10.15
2022-09-01T22:17:58.079Z,12.82
2022-09-01T22:20:38.374Z,7.95
2022-09-01T22:23:14.257Z,10.88
2022-09-01T22:25:51.703Z,10.45
2022-09-01T22:28:27.571Z,8.57
2022-09-01T22:31:03.161Z,7.72
2022-09-01T22:33:46.144Z,11.18
2022-09-01T22:36:29.125Z,10.95
2022-09-01T22:39:04.712Z,12.02
2022-09-01T22:41:45.117Z,14.27
2022-09-01T22:44:23.262Z,12.52
2022-09-01T22:46:58.778Z,8.55
2022-09-01T22:49:35.701Z,9.77
2022-09-01T22:52:13.956Z,11.10
2022-09-01T22:54:49.853Z,10.43
2022-09-01T22:57:26.152Z,12.90
2022-09-01T23:00:02.557Z,12.35
2022-09-01T23:02:57.857Z,10.38
2022-09-01T23:05:34.925Z,12.10
2022-09-01T23:08:12.939Z,10.32
2022-09-01T23:10:48.461Z,12.55
2022-09-01T23:13:24.193Z,9.27
2022-09-01T23:15:59.924Z,10.38
2022-09-01T23:18:38.287Z,13.35
2022-09-01T23:21:14.569Z,8.98
2022-09-01T23:23:58.694Z,9.88
2022-09-01T23:26:38.213Z,11.48
2022-09-01T23:29:13.884Z,12.38
2022-09-01T23:31:50.350Z,12.25
2022-09-01T23:34:25.718Z,9.05
2022-09-01T23:37:06.943Z,10.65
2022-09-01T23:39:45.411Z,14.35
2022-09-01T23:42:21.011Z,12.32
2022-09-01T23:44:59.870Z,10.20
2022-09-01T23:47:35.638Z,13.05
2022-09-01T23:50:12.831Z,8.82
2022-09-01T23:52:49.095Z,8.40
2022-09-01T23:55:28.133Z,10.20
2022-09-01T23:58:04.084Z,7.82
